CheckWX is a tool to help pilots better visualize weather data.  It is not intended as a substitute for an official pre-flight weather briefing.

18:46:10 UTC

SAWG METAR
Piloto Civil N. Fernández Airport
Rio Gallegos, Argentina
Current

46 mins ago

SAWG 201800Z 25036G50KT 9999 FEW025 09/M05 Q0986
Observed
Sep-20 @ 18:00 UTC
Wind
  • 250° at 36 KTS
  • Gusting to 50 KTS
Visibility
10,000+ meters
Flight Rules
VFR
Cloud Levels
  • Few at 2,500' AGL
Temperature
C / 48°F
Dewpoint
-5°C / 23°F
Humidity
37%
Altimeter
29.11" Hg
Pressure
985.92 hPa
Previous

2 hours ago

SAWG 201700Z 25036G46KT 9999 FEW020 09/M05 Q0986
Observed
Sep-20 @ 17:00 UTC
Wind
  • 250° at 36 KTS
  • Gusting to 46 KTS
Visibility
10,000+ meters
Flight Rules
VFR
Cloud Levels
  • Few at 2,000' AGL
Temperature
C / 48°F
Dewpoint
-5°C / 23°F
Humidity
37%
Altimeter
29.11" Hg
Pressure
985.92 hPa
Previous

3 hours ago

SAWG 201600Z 27035G44KT 9999 FEW020 09/M04 Q0986
Observed
Sep-20 @ 16:00 UTC
Wind
  • 270° at 35 KTS
  • Gusting to 44 KTS
Visibility
10,000+ meters
Flight Rules
VFR
Cloud Levels
  • Few at 2,000' AGL
Temperature
C / 48°F
Dewpoint
-4°C / 25°F
Humidity
40%
Altimeter
29.11" Hg
Pressure
985.92 hPa